Terminal Aerodrome Forecast
Issued by NWS Knoxville/Tri Cities, TN

Home | Current Version | Previous Version | Text Only | Print | Product List | Glossary On
Versions: 1 2 3 4 5 6 7 8 9 10 11 12 13 14 15 16
000
FTUS44 KMRX 261722
TAFTRI
TAF
KTRI 261722Z 2618/2718 23008KT P6SM VCSH BKN040
      TEMPO 2618/2619 4SM -RA BKN025
     FM270000 00000KT P6SM SCT050 BKN100
     FM271000 00000KT 5SM BR BKN100
     FM271300 22006KT P6SM SCT050 BKN150=

USA.gov is the U.S. government's official web portal to all federal, state and local government web resources and services.